Time;durP1;ratioP1;P1;durP2;ratioP2;P2;SDS_P1;SDS_P2;PMS_P1;PMS_P2;Temp;Humidity;BMP_temperature;BMP_pressure;BME280_temperature;BME280_humidity;BME280_pressure;Samples;Min_cycle;Max_cycle;Signal;HPM_P1;HPM_P2
2022/10/16 00:01:33;;;;;;;;;2.00;2.00;;;;;17.01;70.60;100814.56;4925215;28;45545;-81
2022/10/16 00:04:00;;;;;;;;;2.67;2.67;;;;;17.01;70.91;100814.56;4924792;28;45311;-82
2022/10/16 00:06:27;;;;;;;;;2.00;2.00;;;;;16.91;71.05;100807.75;4922970;28;45500;-81
2022/10/16 00:08:54;;;;;;;;;0.00;0.00;;;;;16.92;71.23;100807.72;4905304;28;47232;-81
2022/10/16 00:11:25;;;;;;;;;1.67;1.00;;;;;16.89;71.00;100807.81;4902442;28;45343;-81
2022/10/16 00:13:54;;;;;;;;;1.00;1.00;;;;;16.87;71.21;100811.44;4922611;28;45279;-81
2022/10/16 00:16:20;;;;;;;;;2.00;2.00;;;;;16.90;71.40;100837.94;4921331;28;45553;-81
2022/10/16 00:18:46;;;;;;;;;1.00;0.67;;;;;16.90;71.78;100844.13;4921991;28;46301;-81
2022/10/16 00:21:18;;;;;;;;;0.00;0.00;;;;;16.91;71.88;100843.19;4905074;28;45946;-81
2022/10/16 00:23:43;;;;;;;;;2.00;2.00;;;;;16.92;71.88;100842.31;4910442;28;45488;-81
2022/10/16 00:26:12;;;;;;;;;3.33;3.33;;;;;16.93;71.53;100827.22;4907846;28;45591;-81
2022/10/16 00:28:38;;;;;;;;;5.00;3.00;;;;;16.96;71.91;100833.31;4904524;28;47332;-80
2022/10/16 00:31:07;;;;;;;;;1.67;1.67;;;;;16.93;71.87;100821.91;4922577;28;45195;-80
2022/10/16 00:33:34;;;;;;;;;1.00;1.00;;;;;16.99;71.81;100832.34;4917818;28;45415;-80
2022/10/16 00:36:01;;;;;;;;;2.00;1.00;;;;;16.95;71.93;100831.56;4905854;28;45552;-81
2022/10/16 00:38:26;;;;;;;;;2.00;2.00;;;;;17.02;71.82;100834.06;4923306;28;45444;-80
2022/10/16 00:40:52;;;;;;;;;0.00;0.00;;;;;17.04;71.72;100834.88;4923112;28;45197;-80
2022/10/16 00:43:49;;;;;;;;;1.00;1.00;;;;;16.96;71.91;100828.00;4903177;28;45417;-81
2022/10/16 00:46:20;;;;;;;;;0.67;0.67;;;;;17.09;71.64;100835.63;4923065;28;45394;-81
2022/10/16 00:48:51;;;;;;;;;1.00;1.00;;;;;17.08;71.83;100836.53;4903097;28;48242;-81
2022/10/16 00:51:21;;;;;;;;;1.00;1.00;;;;;17.01;72.09;100838.50;4905979;28;45331;-81
2022/10/16 00:53:48;;;;;;;;;0.00;0.00;;;;;17.04;71.49;100843.72;4923172;28;45241;-81
2022/10/16 00:56:13;;;;;;;;;2.00;2.00;;;;;17.11;71.49;100863.06;4923275;28;45260;-82
2022/10/16 00:58:39;;;;;;;;;1.00;1.00;;;;;17.01;71.47;100854.47;4909066;28;48036;-82
2022/10/16 01:01:04;;;;;;;;;4.00;3.00;;;;;17.00;71.49;100849.19;4918585;28;45406;-81
2022/10/16 01:03:34;;;;;;;;;1.00;1.00;;;;;16.94;71.82;100845.78;4929327;28;45291;-80
2022/10/16 01:06:30;;;;;;;;;1.33;1.00;;;;;17.04;71.58;100873.00;4905815;28;45196;-81
2022/10/16 01:09:23;;;;;;;;;0.67;0.33;;;;;17.03;71.52;100879.25;4923388;28;45219;-81
2022/10/16 01:12:05;;;;;;;;;1.00;1.00;;;;;16.92;71.68;100852.03;4922831;28;45425;-81
2022/10/16 01:14:56;;;;;;;;;1.00;1.00;;;;;17.01;71.69;100878.41;4922982;28;45422;-80
2022/10/16 01:17:32;;;;;;;;;1.00;1.00;;;;;17.03;71.27;100886.34;4910901;28;45483;-81
2022/10/16 01:20:20;;;;;;;;;2.00;2.00;;;;;17.02;71.64;100882.78;4922560;28;46309;-82
2022/10/16 01:23:07;;;;;;;;;1.00;1.00;;;;;17.04;71.49;100880.97;4902267;29;45441;-81
2022/10/16 01:25:56;;;;;;;;;1.00;0.00;;;;;17.05;71.51;100879.19;4917948;28;45308;-81
2022/10/16 01:28:29;;;;;;;;;1.67;1.00;;;;;17.02;71.26;100865.97;4922276;28;45296;-81
2022/10/16 01:30:58;;;;;;;;;0.33;0.33;;;;;17.00;71.04;100873.13;4922325;28;45364;-81
2022/10/16 01:33:46;;;;;;;;;2.67;2.00;;;;;16.95;71.60;100865.28;4922674;28;45607;-81
2022/10/16 01:36:21;;;;;;;;;0.67;0.67;;;;;16.95;71.37;100868.81;4922430;28;45441;-82
2022/10/16 01:38:52;;;;;;;;;0.33;0.33;;;;;16.92;71.21;100871.56;4922867;28;45546;-81
2022/10/16 01:41:24;;;;;;;;;1.00;1.00;;;;;16.94;71.35;100869.72;4921079;28;47081;-82
2022/10/16 01:44:01;;;;;;;;;0.00;0.00;;;;;16.97;71.31;100874.97;4917898;28;45385;-81
2022/10/16 01:46:28;;;;;;;;;1.33;1.33;;;;;16.93;71.35;100861.78;4910621;28;45402;-82
2022/10/16 01:48:55;;;;;;;;;25.50;21.50;;;;;16.94;71.46;100866.19;4905172;28;45445;-82
2022/10/16 01:51:23;;;;;;;;;2.00;2.00;;;;;16.97;71.38;100860.78;4922304;28;45384;-82
2022/10/16 01:53:53;;;;;;;;;0.00;0.00;;;;;16.95;71.18;100847.53;4904994;28;45664;-81
2022/10/16 01:56:22;;;;;;;;;0.00;0.00;;;;;16.97;71.25;100866.09;4922359;28;45304;-82
2022/10/16 01:58:54;;;;;;;;;1.00;1.00;;;;;16.95;71.18;100867.94;4924194;28;45574;-82
2022/10/16 02:01:26;;;;;;;;;1.00;0.00;;;;;16.98;71.20;100867.84;4917805;28;46775;-81
2022/10/16 02:03:56;;;;;;;;;2.00;1.00;;;;;16.97;71.25;100874.97;4925636;28;45326;-82
2022/10/16 02:06:22;;;;;;;;;1.67;1.00;;;;;16.94;70.82;100868.84;4905382;28;45605;-82
2022/10/16 02:08:47;;;;;;;;;1.33;1.33;;;;;16.96;71.07;100878.53;4922711;28;45403;-81
2022/10/16 02:11:13;;;;;;;;;1.00;0.00;;;;;16.93;71.08;100859.13;4922234;28;45364;-82
2022/10/16 02:13:46;;;;;;;;;1.67;1.00;;;;;16.92;71.13;100868.91;4904948;28;45825;-82
2022/10/16 02:16:14;;;;;;;;;0.67;0.67;;;;;16.97;70.77;100888.28;4921854;28;45390;-82
2022/10/16 02:18:40;;;;;;;;;2.00;1.00;;;;;16.98;71.24;100884.69;4920617;28;45629;-82
2022/10/16 02:21:28;;;;;;;;;0.00;0.00;;;;;16.97;71.32;100884.72;4917478;28;48301;-81
2022/10/16 02:24:07;;;;;;;;;0.00;0.00;;;;;16.96;71.29;100877.66;4893698;28;45910;-81
2022/10/16 02:26:39;;;;;;;;;0.67;0.67;;;;;16.92;70.82;100879.53;4917558;28;45440;-82
2022/10/16 02:29:10;;;;;;;;;1.00;0.00;;;;;16.93;70.85;100877.75;4923796;28;45466;-81
2022/10/16 02:31:41;;;;;;;;;0.00;0.00;;;;;16.89;71.09;100860.13;4924648;28;46637;-82
2022/10/16 02:34:07;;;;;;;;;0.00;0.00;;;;;16.94;70.99;100869.72;4925210;28;45361;-81
2022/10/16 02:36:35;;;;;;;;;0.33;0.00;;;;;16.87;71.15;100852.19;4889885;29;45435;-81
2022/10/16 02:39:03;;;;;;;;;1.00;1.00;;;;;16.91;71.13;100871.59;4901495;28;45476;-81
2022/10/16 02:41:30;;;;;;;;;1.00;1.00;;;;;16.90;70.64;100880.50;4911149;28;48262;-81
2022/10/16 02:43:55;;;;;;;;;0.00;0.00;;;;;16.86;70.73;100882.34;4924858;28;45462;-81
2022/10/16 02:46:21;;;;;;;;;1.00;1.00;;;;;16.88;70.85;100893.81;4907628;28;45329;-81
2022/10/16 02:48:47;;;;;;;;;0.00;0.00;;;;;16.84;70.67;100900.16;4925062;28;45553;-81
2022/10/16 02:51:12;;;;;;;;;1.33;1.33;;;;;16.83;70.51;100895.72;4925147;28;46216;-81
2022/10/16 02:53:37;;;;;;;;;2.00;2.00;;;;;16.80;70.72;100889.63;4907762;28;45486;-81
2022/10/16 02:56:03;;;;;;;;;1.00;1.00;;;;;16.84;71.31;100913.44;4925073;28;45342;-81
2022/10/16 02:58:28;;;;;;;;;0.00;0.00;;;;;16.78;70.97;100894.13;4928244;28;45450;-81
2022/10/16 03:00:55;;;;;;;;;0.00;0.00;;;;;16.79;70.68;100898.53;4919305;28;45367;-80
2022/10/16 03:03:20;;;;;;;;;1.00;0.00;;;;;16.87;70.77;100917.81;4907599;28;45293;-80
2022/10/16 03:05:45;;;;;;;;;2.00;0.00;;;;;16.86;70.72;100913.41;4907345;28;45545;-80
2022/10/16 03:08:12;;;;;;;;;2.00;2.00;;;;;16.73;70.50;100888.88;4908233;28;45500;-81
2022/10/16 03:10:37;;;;;;;;;2.67;2.67;;;;;16.83;70.57;100905.50;4907389;28;48161;-81
2022/10/16 03:13:03;;;;;;;;;0.00;0.00;;;;;16.83;70.57;100903.72;4924871;28;45418;-81
2022/10/16 03:15:28;;;;;;;;;1.00;1.00;;;;;16.76;70.46;100891.47;4924733;28;45259;-81
2022/10/16 03:17:54;;;;;;;;;0.00;0.00;;;;;16.76;70.55;100886.16;4924391;28;45309;-81
2022/10/16 03:20:19;;;;;;;;;1.00;1.00;;;;;16.83;70.45;100890.41;4924685;28;45519;-81
2022/10/16 03:22:45;;;;;;;;;0.00;0.00;;;;;16.88;70.38;100898.28;4907399;28;45389;-81
2022/10/16 03:25:10;;;;;;;;;0.00;0.00;;;;;16.81;70.19;100881.59;4910081;28;45829;-81
2022/10/16 03:27:36;;;;;;;;;1.00;0.00;;;;;16.80;70.16;100874.56;4924717;28;45437;-81
2022/10/16 03:30:02;;;;;;;;;1.00;1.00;;;;;16.88;70.19;100884.97;4924248;28;45555;-82
2022/10/16 03:32:28;;;;;;;;;1.00;1.00;;;;;16.78;70.01;100871.06;4907147;28;45691;-81
2022/10/16 03:34:54;;;;;;;;;0.00;0.00;;;;;16.84;69.81;100892.19;4923926;28;45386;-82
2022/10/16 03:37:19;;;;;;;;;0.00;0.00;;;;;16.86;69.63;100902.75;4924441;28;45253;-81
2022/10/16 03:39:45;;;;;;;;;0.33;0.00;;;;;16.79;69.56;100888.78;4923979;28;45560;-81
2022/10/16 03:42:10;;;;;;;;;2.00;2.00;;;;;16.80;69.56;100879.88;4924506;28;45243;-81
2022/10/16 03:44:36;;;;;;;;;1.00;1.00;;;;;16.82;69.67;100890.47;4924235;28;45302;-82
2022/10/16 03:47:01;;;;;;;;;0.00;0.00;;;;;16.79;69.54;100904.72;4924311;28;45241;-81
2022/10/16 03:49:27;;;;;;;;;0.00;0.00;;;;;16.83;69.41;100897.53;4924145;28;45740;-81
2022/10/16 03:51:52;;;;;;;;;1.67;1.00;;;;;16.73;69.36;100884.47;4924318;28;45364;-82
2022/10/16 03:54:17;;;;;;;;;1.00;1.00;;;;;16.73;69.54;100896.84;4907056;28;45681;-81
2022/10/16 03:56:43;;;;;;;;;0.00;0.00;;;;;16.70;69.82;100894.28;4924144;28;45228;-81
2022/10/16 03:59:08;;;;;;;;;1.00;1.00;;;;;16.66;69.78;100893.50;4909203;28;47760;-81
2022/10/16 04:01:34;;;;;;;;;0.00;0.00;;;;;16.64;69.59;100892.66;4913390;28;45230;-81
2022/10/16 04:03:59;;;;;;;;;2.00;2.00;;;;;16.71;69.98;100898.72;4921981;28;45485;-81
2022/10/16 04:06:24;;;;;;;;;1.00;1.00;;;;;16.68;69.66;100893.44;4922513;28;45455;-81
2022/10/16 04:08:50;;;;;;;;;1.00;0.00;;;;;16.70;69.62;100907.56;4924478;28;45522;-81
2022/10/16 04:11:15;;;;;;;;;1.00;1.00;;;;;16.64;69.58;100905.09;4923912;28;45467;-82
2022/10/16 04:13:41;;;;;;;;;0.00;0.00;;;;;16.57;69.63;100901.69;4906644;28;45323;-81
2022/10/16 04:16:06;;;;;;;;;0.00;0.00;;;;;16.57;69.93;100906.16;4906168;28;45759;-81
2022/10/16 04:18:32;;;;;;;;;0.00;0.00;;;;;16.62;70.06;100918.41;4906446;28;48500;-81
2022/10/16 04:21:05;;;;;;;;;0.00;0.00;;;;;16.54;69.94;100910.66;4923896;28;45563;-81
2022/10/16 04:23:30;;;;;;;;;0.00;0.00;;;;;16.52;70.02;100907.16;4922576;28;45516;-81
2022/10/16 04:25:56;;;;;;;;;1.00;0.00;;;;;16.59;69.85;100922.94;4926629;28;45427;-81
2022/10/16 04:28:21;;;;;;;;;0.00;0.00;;;;;16.59;70.30;100925.59;4908249;28;47134;-81
2022/10/16 04:30:46;;;;;;;;;0.00;0.00;;;;;16.52;70.24;100923.09;4902865;29;45280;-81
2022/10/16 04:33:12;;;;;;;;;0.00;0.00;;;;;16.57;70.05;100952.19;4922558;28;45530;-81
2022/10/16 04:35:38;;;;;;;;;0.00;0.00;;;;;16.54;70.06;100942.56;4906264;28;45538;-80
2022/10/16 04:38:03;;;;;;;;;0.00;0.00;;;;;16.57;70.16;100948.69;4906073;28;47262;-81
2022/10/16 04:40:32;;;;;;;;;0.33;0.33;;;;;16.58;69.80;100953.97;4919175;28;45411;-81
2022/10/16 04:42:58;;;;;;;;;0.67;0.67;;;;;16.50;70.39;100940.88;4922917;28;45236;-81
2022/10/16 04:45:23;;;;;;;;;1.33;0.33;;;;;16.56;70.26;100949.59;4918632;28;45921;-81
2022/10/16 04:47:49;;;;;;;;;0.00;0.00;;;;;16.56;70.12;100949.59;4905705;28;47332;-81
2022/10/16 04:50:14;;;;;;;;;3.00;3.00;;;;;16.68;70.17;100967.88;4906104;28;45656;-81
2022/10/16 04:52:39;;;;;;;;;0.00;0.00;;;;;16.68;70.30;100974.09;4922927;28;45421;-81
2022/10/16 04:55:05;;;;;;;;;1.00;0.00;;;;;16.67;70.10;100974.13;4895039;28;45489;-81
2022/10/16 04:57:31;;;;;;;;;0.33;0.33;;;;;16.68;70.23;100975.84;4923185;28;45407;-81
2022/10/16 04:59:56;;;;;;;;;0.00;0.00;;;;;16.71;69.91;100970.50;4908474;28;45424;-81
2022/10/16 05:02:22;;;;;;;;;0.00;0.00;;;;;16.74;69.96;100978.38;4923654;28;45551;-81
2022/10/16 05:04:47;;;;;;;;;2.00;2.00;;;;;16.70;69.98;100984.69;4923291;28;45304;-81
2022/10/16 05:07:12;;;;;;;;;0.00;0.00;;;;;16.71;69.72;100986.44;4922857;28;45479;-81
2022/10/16 05:09:38;;;;;;;;;1.00;1.00;;;;;16.74;69.86;100986.34;4923904;28;45452;-81
2022/10/16 05:12:03;;;;;;;;;0.00;0.00;;;;;16.66;70.16;100975.03;4902785;28;45428;-81
2022/10/16 05:14:29;;;;;;;;;1.00;1.00;;;;;16.71;70.08;100984.66;4914285;28;45399;-81
2022/10/16 05:16:54;;;;;;;;;0.00;0.00;;;;;16.73;69.79;100989.91;4905433;28;48253;-81
2022/10/16 05:19:20;;;;;;;;;0.00;0.00;;;;;16.69;69.94;100997.09;4922905;28;45256;-81
2022/10/16 05:21:45;;;;;;;;;1.00;1.00;;;;;16.74;70.09;101008.50;4922864;28;45224;-81
2022/10/16 05:24:10;;;;;;;;;1.00;0.00;;;;;16.75;69.91;101004.91;4923584;28;45176;-81
2022/10/16 05:26:36;;;;;;;;;2.67;2.00;;;;;16.74;70.23;101010.28;4908008;28;48314;-81
2022/10/16 05:29:02;;;;;;;;;0.00;0.00;;;;;16.80;70.04;101009.28;4922876;28;45217;-81
2022/10/16 05:31:27;;;;;;;;;3.00;3.00;;;;;16.84;69.97;101008.28;4921196;28;45284;-81
2022/10/16 05:34:01;;;;;;;;;1.00;1.00;;;;;16.91;70.24;101009.88;4922651;28;45482;-82
2022/10/16 05:36:27;;;;;;;;;0.00;0.00;;;;;16.85;69.87;101000.28;4904150;28;48406;-80
2022/10/16 05:38:52;;;;;;;;;1.00;1.00;;;;;16.86;69.42;100996.69;4922642;28;45512;-80
2022/10/16 05:41:21;;;;;;;;;0.00;0.00;;;;;16.93;69.56;101005.41;4922509;28;45423;-80
2022/10/16 05:43:50;;;;;;;;;1.00;0.00;;;;;16.92;69.60;101012.53;4922772;28;45341;-80
2022/10/16 05:46:16;;;;;;;;;1.67;1.67;;;;;16.93;69.50;101014.25;4922424;28;46550;-80
2022/10/16 05:48:41;;;;;;;;;0.67;0.67;;;;;16.84;69.46;100987.00;4922899;28;45197;-81
2022/10/16 05:51:10;;;;;;;;;0.00;0.00;;;;;16.92;69.30;101004.53;4921764;28;45169;-81
2022/10/16 05:53:38;;;;;;;;;0.67;0.67;;;;;16.90;69.51;101018.78;4919517;28;45519;-81
2022/10/16 05:56:04;;;;;;;;;0.00;0.00;;;;;16.81;69.45;101003.91;4923846;28;45389;-81
2022/10/16 05:58:35;;;;;;;;;1.00;0.00;;;;;16.86;69.50;101020.63;4926422;28;45260;-82
2022/10/16 06:01:00;;;;;;;;;1.33;1.33;;;;;16.83;69.68;101018.06;4919609;28;45456;-81
2022/10/16 06:03:27;;;;;;;;;0.00;0.00;;;;;16.78;69.65;101022.59;4934177;28;45346;-80
2022/10/16 06:05:52;;;;;;;;;0.00;0.00;;;;;16.73;69.58;101005.84;4925720;28;45523;-81
2022/10/16 06:08:19;;;;;;;;;0.00;0.00;;;;;16.71;69.67;101010.38;4927729;28;45458;-80
2022/10/16 06:10:45;;;;;;;;;1.00;0.00;;;;;16.71;69.83;101005.91;4911517;28;45313;-79
2022/10/16 06:13:12;;;;;;;;;0.00;0.00;;;;;16.73;69.77;101014.75;4936163;28;44833;-79
2022/10/16 06:15:38;;;;;;;;;0.00;0.00;;;;;16.75;69.58;101020.88;4922733;28;46370;-80
2022/10/16 06:18:05;;;;;;;;;0.00;0.00;;;;;16.69;69.59;101013.06;4943041;28;45221;-81
2022/10/16 06:20:30;;;;;;;;;0.00;0.00;;;;;16.71;69.74;101007.72;4928867;28;45540;-79
2022/10/16 06:22:56;;;;;;;;;0.00;0.00;;;;;16.72;69.28;101010.31;4936710;28;45605;-81
2022/10/16 06:25:21;;;;;;;;;0.00;0.00;;;;;16.74;69.44;101012.94;4916829;28;47516;-79
2022/10/16 06:27:47;;;;;;;;;0.00;0.00;;;;;16.64;69.71;101006.97;4922977;28;44948;-81
2022/10/16 06:30:12;;;;;;;;;1.00;1.00;;;;;16.66;69.70;101006.94;4928770;28;44750;-81
2022/10/16 06:32:40;;;;;;;;;1.00;1.00;;;;;16.59;69.74;101003.56;4914434;28;45499;-81
2022/10/16 06:35:06;;;;;;;;;0.00;0.00;;;;;16.51;69.78;101014.38;4928346;28;46502;-80
2022/10/16 06:37:31;;;;;;;;;1.00;1.00;;;;;16.49;69.92;101034.81;4922561;28;45368;-80
2022/10/16 06:39:56;;;;;;;;;1.00;1.00;;;;;16.53;70.12;101059.53;4926430;28;45554;-80
2022/10/16 06:42:22;;;;;;;;;0.33;0.33;;;;;16.44;69.96;101043.78;4925650;28;45247;-80
2022/10/16 06:44:47;;;;;;;;;1.00;1.00;;;;;16.48;70.13;101048.13;4908187;28;46694;-80
2022/10/16 06:47:13;;;;;;;;;1.00;1.00;;;;;16.49;70.27;101055.16;4925247;28;45271;-81
2022/10/16 06:49:38;;;;;;;;;3.00;2.00;;;;;16.49;70.18;101052.50;4908320;28;45277;-79
2022/10/16 06:52:04;;;;;;;;;2.00;1.00;;;;;16.48;70.27;101033.03;4925248;28;45241;-77
2022/10/16 06:54:30;;;;;;;;;0.00;0.00;;;;;16.50;69.77;101041.88;4921120;28;48094;-81
2022/10/16 06:56:55;;;;;;;;;1.00;0.00;;;;;16.47;69.94;101025.13;4901503;28;45350;-81
2022/10/16 06:59:21;;;;;;;;;2.00;0.67;;;;;16.52;70.05;101034.72;4929076;28;45256;-82
2022/10/16 07:01:49;;;;;;;;;1.67;0.33;;;;;16.62;69.83;101046.00;4931654;28;45403;-80
2022/10/16 07:04:14;;;;;;;;;1.33;1.00;;;;;16.71;69.83;101061.75;4924782;28;46415;-80
2022/10/16 07:06:40;;;;;;;;;0.00;0.00;;;;;16.72;69.92;101068.81;4907580;28;45402;-80
2022/10/16 07:09:09;;;;;;;;;2.33;2.33;;;;;16.73;69.81;101067.00;4908316;28;45197;-77
2022/10/16 07:11:37;;;;;;;;;0.00;0.00;;;;;16.74;69.76;101067.00;4924661;28;45567;-77
2022/10/16 07:14:03;;;;;;;;;0.00;0.00;;;;;16.69;69.76;101060.91;4923697;28;45924;-77
2022/10/16 07:16:30;;;;;;;;;0.00;0.00;;;;;16.71;70.13;101067.06;4924279;28;45404;-77
2022/10/16 07:19:03;;;;;;;;;3.00;0.00;;;;;16.76;69.85;101077.59;4889567;28;45402;-76
2022/10/16 07:21:35;;;;;;;;;3.00;3.00;;;;;16.85;69.82;101088.03;4907097;28;46038;-78
2022/10/16 07:24:03;;;;;;;;;2.00;2.00;;;;;16.80;69.72;101078.44;4928242;28;47214;-77
2022/10/16 07:26:30;;;;;;;;;1.00;1.00;;;;;16.82;69.65;101065.97;4924109;28;45268;-77
2022/10/16 07:28:57;;;;;;;;;1.00;1.00;;;;;16.98;69.50;101086.81;4924496;28;45244;-78
2022/10/16 07:31:23;;;;;;;;;1.00;1.00;;;;;17.06;69.65;101086.63;4922565;28;45686;-77
2022/10/16 07:33:48;;;;;;;;;1.00;1.00;;;;;17.16;69.28;101096.13;4913259;28;47681;-77
2022/10/16 07:36:17;;;;;;;;;1.33;1.33;;;;;17.26;69.24;101103.88;4935804;28;45533;-77
2022/10/16 07:38:43;;;;;;;;;2.33;2.33;;;;;17.33;68.70;101117.00;4919946;28;45547;-77
2022/10/16 07:41:12;;;;;;;;;1.00;1.00;;;;;17.38;69.03;101107.09;4921685;28;45391;-77
2022/10/16 07:43:38;;;;;;;;;1.00;1.00;;;;;17.43;68.69;101112.31;4923847;28;46212;-77
2022/10/16 07:46:03;;;;;;;;;0.00;0.00;;;;;17.41;68.79;101100.81;4923561;28;45295;-77
2022/10/16 07:48:32;;;;;;;;;1.00;0.00;;;;;17.54;68.79;101115.56;4924464;28;45204;-77
2022/10/16 07:50:59;;;;;;;;;1.00;1.00;;;;;17.60;68.46;101106.53;4935809;28;45408;-77
2022/10/16 07:53:24;;;;;;;;;1.00;1.00;;;;;17.75;68.11;101107.88;4923920;28;45477;-77
2022/10/16 07:55:49;;;;;;;;;1.67;1.67;;;;;17.77;67.86;101104.25;4923648;28;45303;-77
2022/10/16 07:58:15;;;;;;;;;1.00;1.00;;;;;17.89;68.23;101115.56;4926216;28;45152;-78
2022/10/16 08:00:40;;;;;;;;;1.33;0.00;;;;;17.91;67.77;101114.59;4904280;28;45642;-78
2022/10/16 08:03:06;;;;;;;;;1.00;1.00;;;;;18.01;67.54;101120.50;4924741;28;46237;-77
2022/10/16 08:05:33;;;;;;;;;1.00;1.00;;;;;18.01;67.55;101109.84;4920788;28;45337;-79
2022/10/16 08:07:58;;;;;;;;;0.00;0.00;;;;;18.07;67.23;101121.22;4924811;28;45575;-79
2022/10/16 08:10:26;;;;;;;;;1.67;1.00;;;;;18.14;66.68;101134.38;4906565;28;45890;-79
2022/10/16 08:12:52;;;;;;;;;1.00;1.00;;;;;18.16;66.69;101144.06;4928882;28;47146;-79
2022/10/16 08:15:19;;;;;;;;;1.00;1.00;;;;;18.17;66.79;101142.25;4908236;28;45499;-79
2022/10/16 08:17:44;;;;;;;;;1.00;1.00;;;;;18.22;66.54;101146.53;4923495;28;45383;-77
2022/10/16 08:20:10;;;;;;;;;0.33;0.33;;;;;18.32;66.88;101146.28;4906368;28;45411;-77
2022/10/16 08:22:36;;;;;;;;;1.00;1.00;;;;;18.27;66.14;101120.63;4906302;28;45413;-80
2022/10/16 08:25:01;;;;;;;;;1.00;1.00;;;;;18.37;66.09;101121.25;4910361;28;45255;-83
2022/10/16 08:27:33;;;;;;;;;1.00;1.00;;;;;18.33;65.85;101111.56;4923392;28;45235;-79
2022/10/16 08:29:59;;;;;;;;;0.00;0.00;;;;;18.43;66.09;101121.03;4911646;28;45391;-82
2022/10/16 08:32:24;;;;;;;;;3.00;1.67;;;;;18.44;65.57;101143.25;4906700;28;46838;-82
2022/10/16 08:34:49;;;;;;;;;0.00;0.00;;;;;18.37;66.07;101136.38;4902762;28;45495;-81
2022/10/16 08:37:15;;;;;;;;;2.00;2.00;;;;;18.47;65.51;101156.47;4906782;28;45205;-82
2022/10/16 08:39:40;;;;;;;;;2.00;2.00;;;;;18.46;65.83;101141.41;4923500;28;45624;-82
2022/10/16 08:42:36;;;;;;;;;1.00;1.00;;;;;18.58;65.84;101154.38;4919152;28;47259;-83
2022/10/16 08:45:08;;;;;;;;;1.00;1.00;;;;;18.55;65.67;101142.91;4913917;28;45181;-85
2022/10/16 08:47:53;;;;;;;;;1.00;1.00;;;;;18.63;65.24;101151.56;4922300;28;45343;-85
2022/10/16 08:50:24;;;;;;;;;3.00;2.00;;;;;18.70;65.48;101148.66;4918928;28;45838;-82
2022/10/16 08:52:50;;;;;;;;;2.67;2.00;;;;;18.70;65.32;101153.13;4911324;28;46194;-82
2022/10/16 08:55:38;;;;;;;;;0.33;0.33;;;;;18.78;64.98;101163.59;4905136;28;46023;-82
2022/10/16 08:58:15;;;;;;;;;0.33;0.33;;;;;18.78;65.13;101148.47;4922895;28;45404;-82
2022/10/16 09:00:42;;;;;;;;;2.00;2.00;;;;;18.79;65.33;101152.88;4920286;28;45200;-81
2022/10/16 09:03:13;;;;;;;;;3.33;3.33;;;;;18.90;65.14;101164.09;4922968;28;45731;-81
2022/10/16 09:05:57;;;;;;;;;3.00;3.00;;;;;18.92;64.67;101158.69;4922819;28;45518;-87
2022/10/16 09:08:32;;;;;;;;;1.00;1.00;;;;;19.12;64.64;101171.41;4922268;28;45427;-82
2022/10/16 09:11:05;;;;;;;;;1.67;1.67;;;;;19.17;64.93;101162.31;4918292;28;45712;-82
2022/10/16 09:13:50;;;;;;;;;2.33;2.33;;;;;19.36;64.33;101159.91;4902404;28;45667;-81
2022/10/16 09:16:24;;;;;;;;;1.67;1.67;;;;;19.39;63.94;101159.81;4922958;28;45373;-81
2022/10/16 09:19:15;;;;;;;;;2.33;2.33;;;;;19.30;63.86;101144.13;4893996;28;45482;-82
2022/10/16 09:21:47;;;;;;;;;1.33;1.33;;;;;19.35;63.73;101135.94;4921938;28;45933;-80
2022/10/16 09:24:23;;;;;;;;;2.33;1.33;;;;;19.52;63.71;101144.25;4924174;28;45951;-80
2022/10/16 09:26:49;;;;;;;;;3.00;2.00;;;;;19.73;63.40;101155.16;4906699;28;45638;-82
2022/10/16 09:29:16;;;;;;;;;3.00;3.00;;;;;19.92;63.36;101166.94;4922832;28;45483;-82
2022/10/16 09:31:43;;;;;;;;;2.00;2.00;;;;;19.99;62.96;101157.78;4906173;28;45519;-83
2022/10/16 09:34:24;;;;;;;;;2.00;2.00;;;;;20.16;62.50;101181.22;4923052;28;46148;-82
2022/10/16 09:36:51;;;;;;;;;1.67;1.67;;;;;20.10;61.86;101160.06;4895077;28;45549;-81
2022/10/16 09:39:16;;;;;;;;;3.00;3.00;;;;;20.19;61.93;101172.19;4922802;28;45335;-83
2022/10/16 09:41:44;;;;;;;;;3.00;3.00;;;;;20.26;62.16;101169.25;4905656;28;45658;-81
2022/10/16 09:44:23;;;;;;;;;1.33;1.33;;;;;20.34;61.85;101168.97;4904901;28;48164;-80
2022/10/16 09:46:49;;;;;;;;;3.00;3.00;;;;;20.45;61.27;101171.25;4922742;28;45436;-81
2022/10/16 09:49:23;;;;;;;;;2.00;2.00;;;;;20.46;61.36;101176.50;4922743;28;45418;-83
2022/10/16 09:51:53;;;;;;;;;2.00;2.00;;;;;20.51;61.34;101176.34;4923551;28;45319;-84
2022/10/16 09:54:21;;;;;;;;;3.67;3.00;;;;;20.59;61.43;101171.59;4905684;28;45532;-82
2022/10/16 09:56:51;;;;;;;;;0.33;0.33;;;;;20.69;60.99;101169.44;4902968;28;45521;-82
2022/10/16 09:59:26;;;;;;;;;1.00;1.00;;;;;20.72;60.74;101168.47;4915925;28;45308;-82
2022/10/16 10:01:55;;;;;;;;;0.67;0.67;;;;;20.76;60.19;101160.22;4922903;28;45586;-84
2022/10/16 10:04:22;;;;;;;;;1.67;1.67;;;;;20.80;60.31;101145.81;4906138;28;47270;-82
2022/10/16 10:06:52;;;;;;;;;0.67;0.67;;;;;20.82;60.19;101143.94;4922882;28;45343;-81
2022/10/16 10:09:38;;;;;;;;;2.00;2.00;;;;;20.91;60.00;101151.59;4923836;28;45294;-80
2022/10/16 10:12:22;;;;;;;;;3.00;3.00;;;;;21.02;59.88;101158.34;4922671;28;45273;-81
2022/10/16 10:14:51;;;;;;;;;4.67;3.33;;;;;21.08;59.75;101142.88;4921906;28;46105;-80
2022/10/16 10:17:29;;;;;;;;;5.67;4.00;;;;;21.21;59.58;101143.25;4902107;29;45754;-80
2022/10/16 10:20:11;;;;;;;;;4.00;2.33;;;;;21.26;58.89;101148.41;4919613;28;45277;-81
2022/10/16 10:22:45;;;;;;;;;3.00;2.67;;;;;21.41;58.92;101149.59;4920326;28;45558;-82
2022/10/16 10:25:10;;;;;;;;;2.00;2.00;;;;;21.54;58.47;101138.31;4932230;28;46076;-82
2022/10/16 10:27:44;;;;;;;;;3.00;3.00;;;;;21.65;58.17;101145.00;4929526;28;45408;-83
2022/10/16 10:30:38;;;;;;;;;6.00;3.33;;;;;21.80;58.25;101147.88;4910988;28;45430;-83
2022/10/16 10:33:30;;;;;;;;;9.67;7.33;;;;;21.83;57.92;101128.09;4879866;28;45358;-84
2022/10/16 10:36:29;;;;;;;;;14.33;14.00;;;;;22.00;57.60;101144.31;4904892;28;47120;-83
2022/10/16 10:38:59;;;;;;;;;5.33;4.00;;;;;22.09;57.05;101139.47;4922893;28;45328;-82
2022/10/16 10:41:31;;;;;;;;;6.67;5.67;;;;;22.14;56.88;101143.69;4899081;28;45249;-80
2022/10/16 10:44:18;;;;;;;;;4.33;4.33;;;;;22.13;56.29;101149.13;4923630;28;45869;-82
2022/10/16 10:46:55;;;;;;;;;4.67;4.67;;;;;22.03;56.16;101129.91;4918358;28;48274;-82
2022/10/16 10:49:36;;;;;;;;;4.67;4.67;;;;;22.00;56.59;101132.72;4912211;28;45370;-81
2022/10/16 10:52:33;;;;;;;;;3.00;2.67;;;;;21.94;56.15;101117.75;4917743;28;45409;-81
2022/10/16 10:55:14;;;;;;;;;3.00;2.00;;;;;22.02;55.97;101122.78;4924331;28;45422;-82
2022/10/16 10:57:48;;;;;;;;;3.00;3.00;;;;;22.12;55.69;101120.56;4905261;28;46996;-82
2022/10/16 11:00:51;;;;;;;;;3.67;3.67;;;;;22.31;55.79;101118.81;4927901;28;45336;-83
2022/10/16 11:03:16;;;;;;;;;3.67;3.67;;;;;22.53;54.98;101117.78;4912016;28;45502;-83
2022/10/16 11:06:04;;;;;;;;;5.67;5.33;;;;;22.79;54.76;101114.72;4920934;28;45783;-82
2022/10/16 11:08:43;;;;;;;;;2.00;2.00;;;;;23.11;54.41;101099.72;4930791;28;45420;-84
2022/10/16 11:11:16;;;;;;;;;2.00;2.00;;;;;23.45;53.16;101111.44;4927192;28;45771;-84
2022/10/16 11:14:09;;;;;;;;;3.00;2.00;;;;;23.41;52.81;101104.47;4922626;28;45409;-85
2022/10/16 11:16:45;;;;;;;;;5.00;2.33;;;;;23.35;53.07;101107.50;4915991;28;46370;-84
2022/10/16 11:19:39;;;;;;;;;2.33;2.33;;;;;23.19;52.54;101109.22;4923206;28;45535;-86
2022/10/16 11:22:20;;;;;;;;;3.00;3.00;;;;;22.86;52.46;101104.56;4906321;28;45420;-85
2022/10/16 11:25:12;;;;;;;;;2.00;2.00;;;;;22.61;53.15;101116.50;4926782;28;45599;-85
2022/10/16 11:27:50;;;;;;;;;4.67;3.00;;;;;22.48;53.23;101115.34;4920842;28;45374;-85
2022/10/16 11:30:22;;;;;;;;;1.33;1.33;;;;;22.44;53.48;101121.78;4914355;28;48768;-85
2022/10/16 11:33:12;;;;;;;;;3.00;2.00;;;;;22.43;54.00;101120.06;4905617;28;45411;-85
2022/10/16 11:35:46;;;;;;;;;0.00;0.00;;;;;22.54;54.56;101109.69;4923623;28;45353;-82
2022/10/16 11:38:43;;;;;;;;;2.00;2.00;;;;;22.78;54.23;101113.00;4923369;28;45377;-81